createdAt,value
2017-07-15T00:00:31.281Z,95052.86
2017-07-15T00:02:58.930Z,95061.27
2017-07-15T00:05:26.953Z,95062.47
2017-07-15T00:07:54.825Z,95054.72
2017-07-15T00:10:22.534Z,95057.56
2017-07-15T00:12:50.247Z,95057.78
2017-07-15T00:15:17.925Z,95061.99
2017-07-15T00:17:45.595Z,95061.73
2017-07-15T00:20:13.353Z,95066.73
2017-07-15T00:22:41.935Z,95061.72
2017-07-15T00:25:10.390Z,95057.88
2017-07-15T00:27:38.031Z,95056.30
2017-07-15T00:30:06.120Z,95056.28
2017-07-15T00:32:33.763Z,95052.30
2017-07-15T00:35:01.375Z,95056.98
2017-07-15T00:37:29.372Z,95053.80
2017-07-15T00:39:57.373Z,95054.16
2017-07-15T00:42:25.905Z,95044.33
2017-07-15T00:44:53.725Z,95044.17
2017-07-15T00:47:21.399Z,95040.68
2017-07-15T00:49:49.306Z,95037.41
2017-07-15T00:52:17.573Z,95040.05
2017-07-15T00:54:45.930Z,95040.54
2017-07-15T00:57:13.529Z,95033.13
2017-07-15T00:59:41.214Z,95032.16
2017-07-15T01:02:08.805Z,95036.69
2017-07-15T01:04:36.395Z,95039.24
2017-07-15T01:07:03.962Z,95040.72
2017-07-15T01:09:31.554Z,95036.08
2017-07-15T01:11:59.142Z,95034.77
2017-07-15T01:14:27.267Z,95026.86
2017-07-15T01:16:55.559Z,95027.86
2017-07-15T01:19:23.191Z,95031.52
2017-07-15T01:21:50.820Z,95018.60
2017-07-15T01:24:19.373Z,95030.83
2017-07-15T01:26:46.974Z,95039.17
2017-07-15T01:29:14.612Z,95036.64
2017-07-15T01:31:42.232Z,95047.55
2017-07-15T01:34:09.826Z,95043.88
2017-07-15T01:36:37.467Z,95046.53
2017-07-15T01:39:05.175Z,95047.86
2017-07-15T01:41:33.278Z,95046.03
2017-07-15T01:44:00.862Z,95052.06
2017-07-15T01:46:28.496Z,95055.20
2017-07-15T01:48:56.072Z,95057.20
2017-07-15T01:51:23.672Z,95060.73
2017-07-15T01:53:51.376Z,95057.20
2017-07-15T01:56:19.402Z,95058.33
2017-07-15T01:58:47.025Z,95065.55
2017-07-15T02:01:14.740Z,95058.09
2017-07-15T02:03:42.397Z,95062.01
2017-07-15T02:06:10.005Z,95064.09
2017-07-15T02:08:37.646Z,95066.41
2017-07-15T02:11:05.473Z,95070.13
2017-07-15T02:13:33.095Z,95074.26
2017-07-15T02:16:00.755Z,95077.98
2017-07-15T02:18:28.871Z,95077.10
2017-07-15T02:20:56.485Z,95081.88
2017-07-15T02:23:24.151Z,95084.05
2017-07-15T02:25:51.784Z,95081.91
2017-07-15T02:28:19.431Z,95086.98
2017-07-15T02:30:47.077Z,95085.13
2017-07-15T02:33:14.801Z,95086.19
2017-07-15T02:35:42.729Z,95081.48
2017-07-15T02:38:10.419Z,95082.41
2017-07-15T02:40:38.028Z,95090.19
2017-07-15T02:43:05.647Z,95096.47
2017-07-15T02:45:33.496Z,95093.13
2017-07-15T02:48:01.130Z,95098.02
2017-07-15T02:50:28.709Z,95097.24
2017-07-15T02:52:56.331Z,95098.13
2017-07-15T02:55:24.611Z,95105.42
2017-07-15T02:57:52.399Z,95106.52
2017-07-15T03:00:20.157Z,95108.73
2017-07-15T03:02:47.915Z,95101.55
2017-07-15T03:05:15.556Z,95100.20
2017-07-15T03:07:43.241Z,95095.44
2017-07-15T03:10:10.847Z,95099.55
2017-07-15T03:12:38.492Z,95106.96
2017-07-15T03:15:06.131Z,95100.45
2017-07-15T03:17:33.829Z,95109.28
2017-07-15T03:20:01.589Z,95109.23
2017-07-15T03:22:29.238Z,95111.90
2017-07-15T03:24:57.430Z,95109.38
2017-07-15T03:27:35.914Z,95109.02
2017-07-15T03:30:07.248Z,95110.74
2017-07-15T03:32:35.254Z,95109.15
2017-07-15T03:35:02.957Z,95108.07
2017-07-15T03:37:30.575Z,95112.88
2017-07-15T03:39:58.166Z,95108.97
2017-07-15T03:42:25.819Z,95112.71
2017-07-15T03:44:54.364Z,95114.30
2017-07-15T03:47:21.942Z,95119.45
2017-07-15T03:49:49.720Z,95125.28
2017-07-15T03:52:17.379Z,95128.05
2017-07-15T03:54:44.975Z,95133.14
2017-07-15T03:57:12.739Z,95134.49
2017-07-15T03:59:40.394Z,95124.09
2017-07-15T04:02:08.049Z,95132.75
2017-07-15T04:04:35.675Z,95126.49
2017-07-15T04:07:03.280Z,95120.83
2017-07-15T04:09:30.866Z,95113.59
2017-07-15T04:11:58.432Z,95117.30
2017-07-15T04:14:26.790Z,95116.12
2017-07-15T04:16:55.397Z,95118.06
2017-07-15T04:19:22.977Z,95114.15
2017-07-15T04:21:50.616Z,95118.58
2017-07-15T04:24:18.241Z,95118.16
2017-07-15T04:26:45.977Z,95124.45
2017-07-15T04:29:13.565Z,95124.98
2017-07-15T04:31:41.174Z,95124.22
2017-07-15T04:34:09.666Z,95120.80
2017-07-15T04:36:37.244Z,95127.05
2017-07-15T04:39:04.874Z,95124.81
2017-07-15T04:41:32.509Z,95120.98
2017-07-15T04:44:00.101Z,95124.92
2017-07-15T04:46:27.827Z,95123.34
2017-07-15T04:48:56.444Z,95123.23
2017-07-15T04:51:24.020Z,95122.94
2017-07-15T04:53:52.631Z,95120.08
2017-07-15T04:56:20.306Z,95131.61
2017-07-15T04:58:47.889Z,95133.42
2017-07-15T05:01:15.474Z,95143.42
2017-07-15T05:03:44.290Z,95135.96
2017-07-15T05:06:12.782Z,95132.44
2017-07-15T05:08:40.505Z,95131.03
2017-07-15T05:11:08.382Z,95137.42
2017-07-15T05:13:36.162Z,95134.20
2017-07-15T05:16:03.847Z,95133.91
2017-07-15T05:18:31.498Z,95135.97
2017-07-15T05:20:59.177Z,95134.58
2017-07-15T05:23:27.045Z,95134.19
2017-07-15T05:25:54.711Z,95134.81
2017-07-15T05:28:22.394Z,95138.78
2017-07-15T05:30:50.015Z,95133.28
2017-07-15T05:33:18.444Z,95130.11
2017-07-15T05:35:46.061Z,95135.35
2017-07-15T05:38:13.745Z,95133.80
2017-07-15T05:40:41.378Z,95139.95
2017-07-15T05:43:09.023Z,95130.31
2017-07-15T05:45:36.844Z,95132.02
2017-07-15T05:48:04.474Z,95138.54
2017-07-15T05:50:32.276Z,95137.22
2017-07-15T05:52:59.905Z,95133.44
2017-07-15T05:55:27.544Z,95129.42
2017-07-15T05:57:55.218Z,95135.44
2017-07-15T06:00:23.006Z,95131.79
2017-07-15T06:02:50.646Z,95126.16
2017-07-15T06:05:18.335Z,95127.17
2017-07-15T06:07:46.018Z,95127.70
2017-07-15T06:10:13.602Z,95131.13
2017-07-15T06:12:41.196Z,95141.91
2017-07-15T06:15:08.938Z,95133.19
2017-07-15T06:17:36.619Z,95130.52
2017-07-15T06:20:04.653Z,95132.29
2017-07-15T06:22:32.253Z,95124.86
2017-07-15T06:25:00.432Z,95122.47
2017-07-15T06:27:28.076Z,95126.86
2017-07-15T06:29:56.736Z,95129.94
2017-07-15T06:32:24.391Z,95120.07
2017-07-15T06:34:51.992Z,95123.87
2017-07-15T06:37:19.592Z,95121.86
2017-07-15T06:39:47.378Z,95127.90
2017-07-15T06:42:14.956Z,95126.53
2017-07-15T06:44:42.656Z,95127.35
2017-07-15T06:47:10.290Z,95125.28
2017-07-15T06:49:37.882Z,95127.11
2017-07-15T06:52:05.496Z,95120.45
2017-07-15T06:54:34.031Z,95129.35
2017-07-15T06:57:01.623Z,95120.41
2017-07-15T06:59:29.163Z,95128.00
2017-07-15T07:01:56.845Z,95125.93
2017-07-15T07:04:24.592Z,95127.47
2017-07-15T07:06:53.565Z,95130.59
2017-07-15T07:09:21.189Z,95122.36
2017-07-15T07:11:48.942Z,95129.20
2017-07-15T07:14:17.055Z,95128.61
2017-07-15T07:16:45.637Z,95129.48
2017-07-15T07:19:13.233Z,95125.13
2017-07-15T07:21:40.791Z,95122.95
2017-07-15T07:24:08.718Z,95121.29
2017-07-15T07:26:36.299Z,95113.36
2017-07-15T07:29:04.086Z,95107.73
2017-07-15T07:31:31.710Z,95115.81
2017-07-15T07:33:59.567Z,95115.23
2017-07-15T07:36:27.330Z,95107.08
2017-07-15T07:38:54.934Z,95111.83
2017-07-15T07:41:22.477Z,95110.78
2017-07-15T07:44:06.927Z,95099.91
2017-07-15T07:46:40.728Z,95107.22
2017-07-15T07:49:08.425Z,95109.53
2017-07-15T07:51:36.227Z,95110.73
2017-07-15T07:54:04.322Z,95123.13
2017-07-15T07:56:31.886Z,95125.95
2017-07-15T07:58:59.460Z,95122.08
2017-07-15T08:01:27.162Z,95121.34
2017-07-15T08:03:54.743Z,95114.22
2017-07-15T08:06:22.526Z,95099.48
2017-07-15T08:08:50.119Z,95108.33
2017-07-15T08:11:17.709Z,95121.49
2017-07-15T08:13:46.092Z,95116.81
2017-07-15T08:16:13.669Z,95101.62
2017-07-15T08:18:41.427Z,95099.42
2017-07-15T08:21:09.297Z,95104.67
2017-07-15T08:23:36.912Z,95105.09
2017-07-15T08:26:04.511Z,95099.75
2017-07-15T08:28:32.152Z,95097.48
2017-07-15T08:30:59.836Z,95105.34
2017-07-15T08:33:27.393Z,95101.19
2017-07-15T08:35:55.001Z,95094.11
2017-07-15T08:38:22.593Z,95100.96
2017-07-15T08:40:50.207Z,95092.16
2017-07-15T08:43:19.145Z,95089.56
2017-07-15T08:45:46.759Z,95087.57
2017-07-15T08:48:14.321Z,95095.06
2017-07-15T08:50:42.665Z,95074.89
2017-07-15T08:53:10.291Z,95071.70
2017-07-15T08:55:37.849Z,95074.00
2017-07-15T08:58:05.392Z,95078.00
2017-07-15T09:00:33.009Z,95075.28
2017-07-15T09:03:00.626Z,95074.32
2017-07-15T09:05:28.217Z,95073.80
2017-07-15T09:07:55.831Z,95078.61
2017-07-15T09:10:23.424Z,95074.02
2017-07-15T09:12:51.240Z,95067.71
2017-07-15T09:15:18.838Z,95071.05
2017-07-15T09:17:46.422Z,95069.84
2017-07-15T09:20:13.965Z,95071.66
2017-07-15T09:22:41.533Z,95068.97
2017-07-15T09:25:09.086Z,95065.69
2017-07-15T09:27:36.990Z,95071.75
2017-07-15T09:30:08.395Z,95068.30
2017-07-15T09:32:35.949Z,95068.64
2017-07-15T09:35:03.517Z,95069.93
2017-07-15T09:37:31.131Z,95073.27
2017-07-15T09:39:58.724Z,95066.56
2017-07-15T09:42:26.282Z,95065.48
2017-07-15T09:44:53.869Z,95065.89
2017-07-15T09:47:21.970Z,95064.57
2017-07-15T09:49:49.615Z,95067.33
2017-07-15T09:52:17.584Z,95057.73
2017-07-15T09:54:45.120Z,95056.34
2017-07-15T09:57:12.686Z,95061.52
2017-07-15T09:59:40.476Z,95058.80
2017-07-15T10:02:08.615Z,95053.44
2017-07-15T10:04:36.211Z,95044.35
2017-07-15T10:07:03.847Z,95045.70
2017-07-15T10:09:31.476Z,95052.33
2017-07-15T10:11:59.037Z,95059.12
2017-07-15T10:14:26.658Z,95046.73
2017-07-15T10:16:55.621Z,95044.95
2017-07-15T10:19:23.189Z,95053.30
2017-07-15T10:21:50.747Z,95051.89
2017-07-15T10:24:18.498Z,95050.11
2017-07-15T10:26:46.111Z,95055.38
2017-07-15T10:29:13.949Z,95044.26
2017-07-15T10:31:41.509Z,95050.89
2017-07-15T10:34:09.122Z,95052.47
2017-07-15T10:36:36.747Z,95053.97
2017-07-15T10:39:04.379Z,95046.87
2017-07-15T10:41:32.008Z,95049.13
2017-07-15T10:43:59.605Z,95046.95
2017-07-15T10:46:27.238Z,95042.12
2017-07-15T10:48:55.986Z,95048.09
2017-07-15T10:51:23.812Z,95044.73
2017-07-15T10:53:51.434Z,95051.83
2017-07-15T10:56:18.954Z,95046.27
2017-07-15T10:58:47.205Z,95040.16
2017-07-15T11:01:15.135Z,95042.93
2017-07-15T11:03:43.175Z,95042.62
2017-07-15T11:06:11.333Z,95038.12
2017-07-15T11:08:39.718Z,95038.28
2017-07-15T11:11:07.245Z,95043.95
2017-07-15T11:13:34.859Z,95035.16
2017-07-15T11:16:02.456Z,95033.39
2017-07-15T11:18:30.079Z,95027.25
2017-07-15T11:20:57.711Z,95034.59
2017-07-15T11:23:25.295Z,95035.27
2017-07-15T11:25:52.903Z,95031.69
2017-07-15T11:28:20.450Z,95035.43
2017-07-15T11:30:48.042Z,95032.59
2017-07-15T11:33:19.202Z,95028.56
2017-07-15T11:35:49.305Z,95034.97
2017-07-15T11:38:19.747Z,95033.83
2017-07-15T11:40:49.002Z,95032.84
2017-07-15T11:43:18.890Z,95031.62
2017-07-15T11:45:47.907Z,95031.76
2017-07-15T11:48:16.316Z,95030.13
2017-07-15T11:50:43.915Z,95029.55
2017-07-15T11:53:12.805Z,95036.06
2017-07-15T11:55:40.422Z,95027.20
2017-07-15T11:58:08.086Z,95032.70
2017-07-15T12:00:35.724Z,95037.59
2017-07-15T12:03:03.330Z,95033.73
2017-07-15T12:05:30.920Z,95031.72
2017-07-15T12:07:58.514Z,95029.36
2017-07-15T12:10:26.133Z,95029.75
2017-07-15T12:12:53.718Z,95032.88
2017-07-15T12:15:21.535Z,95035.71
2017-07-15T12:17:49.078Z,95026.02
2017-07-15T12:20:16.876Z,95028.40
2017-07-15T12:22:44.653Z,95024.56
2017-07-15T12:25:12.536Z,95017.98
2017-07-15T12:27:40.110Z,95024.87
2017-07-15T12:30:07.804Z,95029.64
2017-07-15T12:32:35.337Z,95025.27
2017-07-15T12:35:02.958Z,95025.11
2017-07-15T12:37:31.374Z,95028.90
2017-07-15T12:39:58.929Z,95032.20
2017-07-15T12:42:26.746Z,95031.73
2017-07-15T12:44:54.322Z,95039.55
2017-07-15T12:47:21.898Z,95040.84
2017-07-15T12:49:49.447Z,95033.88
2017-07-15T12:52:17.027Z,95031.71
2017-07-15T12:54:44.610Z,95026.92
2017-07-15T12:57:12.155Z,95031.07
2017-07-15T12:59:39.818Z,95027.14
2017-07-15T13:02:07.700Z,95038.05
2017-07-15T13:04:35.442Z,95033.42
2017-07-15T13:07:02.998Z,95023.87
2017-07-15T13:09:31.447Z,95036.00
2017-07-15T13:11:58.997Z,95031.31
2017-07-15T13:14:26.653Z,95036.88
2017-07-15T13:16:54.267Z,95040.78
2017-07-15T13:19:21.883Z,95049.47
2017-07-15T13:21:49.707Z,95051.05
2017-07-15T13:24:17.314Z,95052.98
2017-07-15T13:26:44.911Z,95064.69
2017-07-15T13:29:12.513Z,95058.16
2017-07-15T13:31:40.214Z,95073.97
2017-07-15T13:34:07.795Z,95078.21
2017-07-15T13:36:35.378Z,95076.53
2017-07-15T13:39:03.003Z,95080.70
2017-07-15T13:41:30.586Z,95084.34
2017-07-15T13:43:58.206Z,95095.00
2017-07-15T13:46:25.798Z,95094.63
2017-07-15T13:48:53.377Z,95094.44
2017-07-15T13:51:23.534Z,95089.09
2017-07-15T13:53:52.744Z,95081.86
2017-07-15T13:56:20.637Z,95079.80
2017-07-15T13:58:48.173Z,95077.48
2017-07-15T14:01:16.007Z,95076.78
2017-07-15T14:03:43.610Z,95073.30
2017-07-15T14:06:11.210Z,95082.84
2017-07-15T14:08:38.837Z,95086.08
2017-07-15T14:11:06.617Z,95087.02
2017-07-15T14:13:34.217Z,95092.23
2017-07-15T14:16:01.817Z,95087.91
2017-07-15T14:18:29.346Z,95080.61
2017-07-15T14:20:56.943Z,95080.72
2017-07-15T14:23:27.340Z,95088.45
2017-07-15T14:25:55.114Z,95084.70
2017-07-15T14:28:22.756Z,95086.72
2017-07-15T14:30:50.342Z,95090.78
2017-07-15T14:33:18.548Z,95079.39
2017-07-15T14:35:46.197Z,95084.82
2017-07-15T14:38:13.832Z,95085.14
2017-07-15T14:40:41.617Z,95083.13
2017-07-15T14:43:09.174Z,95089.69
2017-07-15T14:45:37.020Z,95090.19
2017-07-15T14:48:04.655Z,95087.41
2017-07-15T14:50:32.241Z,95089.38
2017-07-15T14:52:59.833Z,95095.00
2017-07-15T14:55:27.585Z,95094.00
2017-07-15T14:57:55.171Z,95090.84
2017-07-15T15:00:22.844Z,95101.70
2017-07-15T15:02:51.001Z,95104.41
2017-07-15T15:05:18.581Z,95102.57
2017-07-15T15:07:47.054Z,95109.96
2017-07-15T15:10:14.649Z,95107.53
2017-07-15T15:12:42.272Z,95106.06
2017-07-15T15:15:09.880Z,95116.16
2017-07-15T15:17:37.435Z,95114.58
2017-07-15T15:20:04.978Z,95115.50
2017-07-15T15:22:32.562Z,95115.77
2017-07-15T15:25:00.467Z,95119.91
2017-07-15T15:27:28.562Z,95120.30
2017-07-15T15:29:56.216Z,95119.78
2017-07-15T15:32:23.846Z,95124.13
2017-07-15T15:34:51.453Z,95129.34
2017-07-15T15:37:19.219Z,95125.30
2017-07-15T15:39:46.845Z,95125.33
2017-07-15T15:42:16.613Z,95125.77
2017-07-15T15:44:44.210Z,95127.55
2017-07-15T15:47:12.056Z,95140.95
2017-07-15T15:49:39.590Z,95138.03
2017-07-15T15:52:07.155Z,95145.23
2017-07-15T15:54:34.741Z,95136.28
2017-07-15T15:57:02.298Z,95140.27
2017-07-15T15:59:29.879Z,95142.78
2017-07-15T16:01:57.463Z,95144.28
2017-07-15T16:04:25.095Z,95150.73
2017-07-15T16:06:52.643Z,95149.67
2017-07-15T16:09:20.220Z,95153.17
2017-07-15T16:11:47.990Z,95155.61
2017-07-15T16:14:15.737Z,95154.13
2017-07-15T16:16:43.532Z,95152.02
2017-07-15T16:19:11.113Z,95153.09
2017-07-15T16:21:38.747Z,95156.61
2017-07-15T16:24:06.376Z,95155.69
2017-07-15T16:26:33.929Z,95153.80
2017-07-15T16:29:01.679Z,95158.73
2017-07-15T16:31:29.292Z,95149.12
2017-07-15T16:33:56.836Z,95156.08
2017-07-15T16:36:24.444Z,95153.84
2017-07-15T16:38:52.029Z,95154.21
2017-07-15T16:41:23.026Z,95156.19
2017-07-15T16:43:51.056Z,95155.69
2017-07-15T16:46:24.638Z,95156.19
2017-07-15T16:48:54.906Z,95160.42
2017-07-15T16:51:22.759Z,95158.10
2017-07-15T16:53:50.412Z,95156.58
2017-07-15T16:56:18.000Z,95163.46
2017-07-15T16:58:45.691Z,95163.27
2017-07-15T17:01:13.418Z,95168.20
2017-07-15T17:03:42.197Z,95161.67
2017-07-15T17:06:10.027Z,95160.66
2017-07-15T17:08:37.638Z,95159.80
2017-07-15T17:11:05.219Z,95152.20
2017-07-15T17:13:33.002Z,95158.12
2017-07-15T17:18:37.112Z,95149.98
2017-07-15T17:21:04.848Z,95148.84
2017-07-15T17:23:32.592Z,95147.80
2017-07-15T17:26:00.259Z,95148.20
2017-07-15T17:28:27.875Z,95153.98
2017-07-15T17:30:55.559Z,95147.58
2017-07-15T17:33:23.149Z,95150.10
2017-07-15T17:35:50.787Z,95146.49
2017-07-15T17:38:18.358Z,95148.67
2017-07-15T17:40:46.489Z,95150.30
2017-07-15T17:43:14.757Z,95160.14
2017-07-15T17:45:42.348Z,95158.67
2017-07-15T17:48:10.144Z,95157.91
2017-07-15T17:50:37.749Z,95160.80
2017-07-15T17:53:05.431Z,95154.56
2017-07-15T17:55:33.029Z,95156.50
2017-07-15T17:58:00.910Z,95159.08
2017-07-15T18:00:28.759Z,95161.62
2017-07-15T18:02:56.322Z,95167.08
2017-07-15T18:05:23.889Z,95168.58
2017-07-15T18:07:51.537Z,95170.81
2017-07-15T18:10:19.121Z,95171.56
2017-07-15T18:12:46.755Z,95179.32
2017-07-15T18:15:14.370Z,95182.44
2017-07-15T18:17:41.961Z,95181.93
2017-07-15T18:20:09.784Z,95194.23
2017-07-15T18:22:37.342Z,95205.03
2017-07-15T18:25:04.980Z,95213.47
2017-07-15T18:27:32.814Z,95215.63
2017-07-15T18:30:00.893Z,95219.87
2017-07-15T18:32:28.478Z,95231.36
2017-07-15T18:34:56.049Z,95235.42
2017-07-15T18:37:23.634Z,95226.42
2017-07-15T18:39:51.233Z,95227.97
2017-07-15T18:42:18.800Z,95233.25
2017-07-15T18:44:47.337Z,95239.95
2017-07-15T18:47:14.956Z,95249.42
2017-07-15T18:49:42.497Z,95251.89
2017-07-15T18:52:10.596Z,95246.12
2017-07-15T18:54:38.416Z,95245.44
2017-07-15T18:57:06.003Z,95244.32
2017-07-15T18:59:33.666Z,95239.56
2017-07-15T19:02:01.319Z,95237.97
2017-07-15T19:04:28.903Z,95233.74
2017-07-15T19:06:56.513Z,95229.69
2017-07-15T19:09:24.152Z,95222.65
2017-07-15T19:11:51.742Z,95224.73
2017-07-15T19:14:19.389Z,95221.38
2017-07-15T19:16:47.841Z,95231.98
2017-07-15T19:19:15.652Z,95237.23
2017-07-15T19:21:43.313Z,95233.67
2017-07-15T19:24:11.034Z,95235.80
2017-07-15T19:26:38.675Z,95231.77
2017-07-15T19:29:07.545Z,95229.38
2017-07-15T19:31:35.252Z,95238.11
2017-07-15T19:34:03.163Z,95242.95
2017-07-15T19:36:32.198Z,95239.22
2017-07-15T19:38:59.824Z,95243.64
2017-07-15T19:41:28.367Z,95241.09
2017-07-15T19:43:57.796Z,95256.12
2017-07-15T19:46:25.562Z,95258.78
2017-07-15T19:49:06.580Z,95271.38
2017-07-15T19:51:34.243Z,95280.06
2017-07-15T19:54:02.100Z,95284.35
2017-07-15T19:56:29.712Z,95295.30
2017-07-15T19:58:57.446Z,95303.01
2017-07-15T20:01:25.092Z,95313.42
2017-07-15T20:06:30.304Z,95329.47
2017-07-15T20:09:01.492Z,95333.48
2017-07-15T20:11:29.229Z,95323.09
2017-07-15T20:13:56.995Z,95332.06
2017-07-15T20:16:24.689Z,95324.02
2017-07-15T20:18:52.402Z,95318.46
2017-07-15T20:21:20.069Z,95323.38
2017-07-15T20:23:48.234Z,95333.52
2017-07-15T20:26:15.835Z,95322.94
2017-07-15T20:28:43.432Z,95327.87
2017-07-15T20:31:11.078Z,95324.67
2017-07-15T20:33:38.769Z,95322.28
2017-07-15T20:36:12.070Z,95319.45
2017-07-15T20:38:39.677Z,95326.78
2017-07-15T20:41:07.254Z,95321.48
2017-07-15T20:43:34.841Z,95317.36
2017-07-15T20:46:02.802Z,95312.86
2017-07-15T20:48:30.933Z,95311.06
2017-07-15T20:50:58.529Z,95304.62
2017-07-15T20:53:41.739Z,95309.73
2017-07-15T20:56:09.366Z,95310.34
2017-07-15T20:58:36.918Z,95311.99
2017-07-15T21:01:04.647Z,95314.29
2017-07-15T21:03:32.275Z,95314.75
2017-07-15T21:05:59.911Z,95316.45
2017-07-15T21:08:28.360Z,95314.69
2017-07-15T21:10:55.930Z,95325.31
2017-07-15T21:13:23.770Z,95317.05
2017-07-15T21:15:51.377Z,95321.01
2017-07-15T21:18:18.955Z,95337.50
2017-07-15T21:20:46.529Z,95337.57
2017-07-15T21:23:14.170Z,95340.27
2017-07-15T21:25:41.706Z,95347.17
2017-07-15T21:28:09.274Z,95348.82
2017-07-15T21:30:36.974Z,95344.74
2017-07-15T21:33:04.538Z,95327.63
2017-07-15T21:35:32.136Z,95336.09
2017-07-15T21:37:59.761Z,95331.50
2017-07-15T21:40:32.351Z,95341.44
2017-07-15T21:42:59.909Z,95326.65
2017-07-15T21:45:27.560Z,95315.27
2017-07-15T21:47:55.130Z,95304.88
2017-07-15T21:50:22.702Z,95308.97
2017-07-15T21:52:50.699Z,95305.50
2017-07-15T21:55:18.610Z,95310.88
2017-07-15T21:57:47.037Z,95313.33
2017-07-15T22:00:14.757Z,95318.70
2017-07-15T22:02:42.537Z,95317.22
2017-07-15T22:08:29.394Z,95321.47
2017-07-15T22:11:05.832Z,95325.70
2017-07-15T22:13:36.114Z,95326.02
2017-07-15T22:16:03.700Z,95328.59
2017-07-15T22:18:31.508Z,95338.69
2017-07-15T22:21:00.960Z,95340.66
2017-07-15T22:23:28.506Z,95339.33
2017-07-15T22:26:19.982Z,95335.96
2017-07-15T22:28:47.846Z,95330.45
2017-07-15T22:31:15.463Z,95333.48
2017-07-15T22:33:43.250Z,95328.37
2017-07-15T22:36:11.032Z,95335.95
2017-07-15T22:38:38.642Z,95329.45
2017-07-15T22:41:06.230Z,95331.55
2017-07-15T22:43:34.001Z,95330.31
2017-07-15T22:46:01.570Z,95334.59
2017-07-15T22:48:29.113Z,95329.95
2017-07-15T22:50:56.657Z,95332.84
2017-07-15T22:53:24.261Z,95320.14
2017-07-15T22:55:51.824Z,95324.86
2017-07-15T22:58:20.350Z,95321.66
2017-07-15T23:00:48.012Z,95322.06
2017-07-15T23:03:15.605Z,95327.79
2017-07-15T23:05:43.145Z,95325.27
2017-07-15T23:08:10.926Z,95334.64
2017-07-15T23:10:38.500Z,95337.27
2017-07-15T23:13:06.317Z,95336.95
2017-07-15T23:15:33.906Z,95343.14
2017-07-15T23:18:01.441Z,95344.25
2017-07-15T23:20:29.573Z,95344.37
2017-07-15T23:22:57.153Z,95340.36
2017-07-15T23:25:24.678Z,95335.80
2017-07-15T23:27:52.229Z,95339.86
2017-07-15T23:30:19.877Z,95331.13
2017-07-15T23:32:47.560Z,95340.62
2017-07-15T23:35:15.201Z,95342.39
2017-07-15T23:37:42.875Z,95332.25
2017-07-15T23:40:10.412Z,95344.75
2017-07-15T23:42:38.157Z,95344.11
2017-07-15T23:45:06.047Z,95344.75
2017-07-15T23:47:33.598Z,95337.63
2017-07-15T23:50:01.152Z,95329.84
2017-07-15T23:52:28.763Z,95330.45
2017-07-15T23:54:56.398Z,95334.73
2017-07-15T23:57:23.983Z,95338.02
2017-07-15T23:59:51.727Z,95334.58
